Time;durP1;ratioP1;P1;durP2;ratioP2;P2;SDS_P1;SDS_P2;PMS_P1;PMS_P2;Temp;Humidity;BMP_temperature;BMP_pressure;BME280_temperature;BME280_humidity;BME280_pressure;Samples;Min_cycle;Max_cycle;Signal;HPM_P1;HPM_P2
2023/08/24 00:02:13;;;;;;;8.08;3.42;;;29.70;92.90;;;;;;1916652;75;21088;-75
2023/08/24 00:05:06;;;;;;;6.17;3.30;;;29.60;93.10;;;;;;1916594;75;21108;-75
2023/08/24 00:07:58;;;;;;;5.50;3.17;;;29.60;93.20;;;;;;1916180;75;21100;-75
2023/08/24 00:10:49;;;;;;;8.08;3.30;;;29.60;93.20;;;;;;1915833;75;21117;-75
2023/08/24 00:13:40;;;;;;;8.13;3.55;;;29.60;93.30;;;;;;1904146;75;21083;-75
2023/08/24 00:16:32;;;;;;;6.70;3.33;;;29.50;93.40;;;;;;1904354;75;21164;-75
2023/08/24 00:19:23;;;;;;;7.05;3.40;;;29.40;93.60;;;;;;1904347;75;21112;-75
2023/08/24 00:22:15;;;;;;;7.55;4.03;;;29.40;93.70;;;;;;1904246;75;21152;-75
2023/08/24 00:25:08;;;;;;;6.80;3.02;;;29.30;93.80;;;;;;1916609;75;21112;-75
2023/08/24 00:28:00;;;;;;;6.30;3.05;;;29.30;94.10;;;;;;1916669;74;21113;-75
2023/08/24 00:30:51;;;;;;;6.33;2.92;;;29.10;94.40;;;;;;1916703;75;21119;-75
2023/08/24 00:33:42;;;;;;;5.17;3.00;;;29.10;94.40;;;;;;1916738;75;21107;-76
2023/08/24 00:36:34;;;;;;;4.55;3.00;;;29.20;94.60;;;;;;1916642;75;21109;-75
2023/08/24 00:39:26;;;;;;;7.08;2.90;;;29.20;94.90;;;;;;1916624;75;21061;-75
2023/08/24 00:42:18;;;;;;;7.40;3.15;;;29.30;95.20;;;;;;1916674;75;21081;-75
2023/08/24 00:45:13;;;;;;;8.10;3.00;;;29.40;95.20;;;;;;1916602;75;21105;-75
2023/08/24 00:48:06;;;;;;;6.12;2.65;;;29.50;95.20;;;;;;1904303;75;21146;-75
2023/08/24 00:50:59;;;;;;;5.58;3.00;;;29.50;95.40;;;;;;1904275;75;21889;-75
2023/08/24 00:53:51;;;;;;;6.85;2.98;;;29.50;95.80;;;;;;1903923;75;21054;-76
2023/08/24 00:56:42;;;;;;;6.40;2.80;;;29.50;96.20;;;;;;1904142;75;21058;-75
2023/08/24 00:59:35;;;;;;;7.53;2.85;;;29.50;96.40;;;;;;1904090;75;21147;-76
2023/08/24 01:02:27;;;;;;;4.90;2.95;;;29.40;96.40;;;;;;1904270;75;21606;-75
2023/08/24 01:05:19;;;;;;;6.33;2.67;;;29.30;96.70;;;;;;1904304;75;21167;-75
2023/08/24 01:08:11;;;;;;;4.85;2.60;;;29.30;96.80;;;;;;1916467;75;21191;-75
2023/08/24 01:11:05;;;;;;;5.55;2.85;;;29.20;96.90;;;;;;1904341;75;21082;-76
2023/08/24 01:14:00;;;;;;;4.87;3.00;;;29.20;97.00;;;;;;1916712;75;21574;-76
2023/08/24 01:16:53;;;;;;;9.15;3.35;;;29.10;97.30;;;;;;1916650;75;21562;-76
2023/08/24 01:19:45;;;;;;;5.70;2.90;;;29.00;97.60;;;;;;1916610;75;21130;-76
2023/08/24 01:22:40;;;;;;;5.20;2.98;;;29.00;97.90;;;;;;1916588;75;21604;-75
2023/08/24 01:25:38;;;;;;;5.35;3.00;;;28.90;98.20;;;;;;1916734;75;21533;-76
2023/08/24 01:28:29;;;;;;;5.92;2.90;;;28.90;98.40;;;;;;1906634;75;21124;-76
2023/08/24 01:31:22;;;;;;;5.20;2.77;;;28.90;98.50;;;;;;1916660;75;21106;-76
2023/08/24 01:34:14;;;;;;;8.43;3.33;;;28.90;98.60;;;;;;1916817;75;21572;-75
2023/08/24 01:37:07;;;;;;;7.37;3.17;;;28.90;98.70;;;;;;1916613;75;21113;-75
2023/08/24 01:40:05;;;;;;;5.70;2.85;;;28.90;98.90;;;;;;1916792;75;21103;-75
2023/08/24 01:43:00;;;;;;;7.83;3.10;;;28.90;99.00;;;;;;1916719;75;21059;-75
2023/08/24 01:45:53;;;;;;;7.78;3.05;;;28.80;99.00;;;;;;1916705;75;21052;-75
2023/08/24 01:48:45;;;;;;;7.05;2.70;;;28.80;99.10;;;;;;1916613;75;21110;-75
2023/08/24 01:51:37;;;;;;;5.37;3.10;;;28.80;99.20;;;;;;1916357;75;21047;-75
2023/08/24 01:54:30;;;;;;;5.20;2.98;;;28.80;99.30;;;;;;1916478;75;21595;-75
2023/08/24 01:57:22;;;;;;;6.03;2.90;;;28.80;99.60;;;;;;1916704;75;21164;-75
2023/08/24 02:00:14;;;;;;;8.55;3.12;;;28.70;99.70;;;;;;1916758;75;21102;-75
2023/08/24 02:03:08;;;;;;;6.53;2.90;;;28.60;99.90;;;;;;1916859;75;21628;-75
2023/08/24 02:05:59;;;;;;;6.20;3.00;;;28.70;99.90;;;;;;1916720;75;21063;-75
2023/08/24 02:08:53;;;;;;;6.53;3.40;;;28.70;99.90;;;;;;1916500;75;21644;-75
2023/08/24 02:11:44;;;;;;;6.40;3.02;;;28.70;99.90;;;;;;1916745;75;21233;-75
2023/08/24 02:14:36;;;;;;;5.87;3.27;;;28.70;99.90;;;;;;1916715;75;21050;-75
2023/08/24 02:17:28;;;;;;;7.35;2.87;;;28.60;99.90;;;;;;1916757;75;22279;-75
2023/08/24 02:20:20;;;;;;;5.25;3.08;;;28.60;99.90;;;;;;1916776;75;21174;-75
2023/08/24 02:23:11;;;;;;;7.90;3.50;;;28.60;99.90;;;;;;1916577;75;21645;-75
2023/08/24 02:26:03;;;;;;;8.30;3.10;;;28.60;99.90;;;;;;1916474;75;21172;-75
2023/08/24 02:28:56;;;;;;;5.70;3.20;;;28.60;99.90;;;;;;1915948;75;21121;-75
2023/08/24 02:31:47;;;;;;;9.20;3.67;;;28.60;99.90;;;;;;1916347;75;21220;-75
2023/08/24 02:34:38;;;;;;;9.55;3.45;;;28.60;99.90;;;;;;1916482;75;21091;-75
2023/08/24 02:37:30;;;;;;;7.03;3.25;;;28.50;99.90;;;;;;1916456;75;21209;-75
2023/08/24 02:40:21;;;;;;;6.40;3.15;;;28.50;99.90;;;;;;1916174;75;21052;-75
2023/08/24 02:43:13;;;;;;;5.62;2.95;;;28.40;99.90;;;;;;1916517;75;21083;-75
2023/08/24 02:46:07;;;;;;;6.70;3.10;;;28.40;99.90;;;;;;1916686;75;21138;-75
2023/08/24 02:48:58;;;;;;;6.45;3.02;;;28.40;99.90;;;;;;1916600;75;21088;-75
2023/08/24 02:51:50;;;;;;;6.83;3.08;;;28.30;99.90;;;;;;1916573;75;21098;-75
2023/08/24 02:54:41;;;;;;;7.55;3.10;;;28.20;99.90;;;;;;1916502;75;21050;-75
2023/08/24 02:57:32;;;;;;;6.65;3.25;;;28.20;99.90;;;;;;1916785;75;21140;-75
2023/08/24 03:00:24;;;;;;;8.05;3.22;;;28.10;99.90;;;;;;1916664;75;21156;-75
2023/08/24 03:03:16;;;;;;;5.70;3.05;;;28.00;99.90;;;;;;1916759;75;21189;-75
2023/08/24 03:06:09;;;;;;;8.13;3.20;;;28.00;99.90;;;;;;1916624;75;21085;-75
2023/08/24 03:09:03;;;;;;;9.30;3.58;;;27.90;99.90;;;;;;1916460;75;21197;-75
2023/08/24 03:11:55;;;;;;;7.20;3.60;;;27.90;99.90;;;;;;1916488;75;21199;-76
2023/08/24 03:14:46;;;;;;;7.50;3.30;;;27.90;99.90;;;;;;1916328;75;21569;-76
2023/08/24 03:17:38;;;;;;;7.55;3.75;;;27.90;99.90;;;;;;1916481;75;21098;-76
2023/08/24 03:20:30;;;;;;;6.03;3.10;;;27.90;99.90;;;;;;1916466;75;21100;-75
2023/08/24 03:23:21;;;;;;;7.87;3.52;;;27.80;99.90;;;;;;1916388;75;21045;-75
2023/08/24 03:26:12;;;;;;;10.82;3.37;;;27.80;99.90;;;;;;1916586;75;21182;-75
2023/08/24 03:29:04;;;;;;;6.05;3.37;;;27.70;99.90;;;;;;1916471;75;21096;-75
2023/08/24 03:31:56;;;;;;;6.85;3.52;;;27.80;99.90;;;;;;1906790;74;21140;-76
2023/08/24 03:34:48;;;;;;;7.33;3.12;;;27.90;99.90;;;;;;1904097;75;21176;-76
2023/08/24 03:37:40;;;;;;;5.28;3.42;;;27.90;99.90;;;;;;1916356;75;21088;-75
2023/08/24 03:40:31;;;;;;;8.28;3.70;;;28.00;99.90;;;;;;1916525;75;21162;-76
2023/08/24 03:43:23;;;;;;;7.15;3.52;;;28.00;99.90;;;;;;1904213;75;21131;-76
2023/08/24 03:46:17;;;;;;;7.42;2.98;;;28.00;99.90;;;;;;1904208;75;21086;-75
2023/08/24 03:49:15;;;;;;;7.65;3.00;;;28.00;99.90;;;;;;1904272;75;21101;-76
2023/08/24 03:52:06;;;;;;;6.65;3.33;;;28.00;99.90;;;;;;1904125;75;21224;-75
2023/08/24 03:54:58;;;;;;;9.20;3.67;;;28.00;99.90;;;;;;1904097;75;21611;-75
2023/08/24 03:57:49;;;;;;;7.15;3.62;;;27.90;99.90;;;;;;1903879;75;21522;-75
2023/08/24 04:00:42;;;;;;;6.37;3.30;;;27.90;99.90;;;;;;1903670;75;21157;-75
2023/08/24 04:03:33;;;;;;;8.20;3.12;;;27.80;99.90;;;;;;1904089;75;21141;-75
2023/08/24 04:06:25;;;;;;;9.55;3.10;;;27.70;99.90;;;;;;1904116;75;21097;-75
2023/08/24 04:09:16;;;;;;;5.28;3.35;;;27.60;99.90;;;;;;1916366;75;21190;-75
2023/08/24 04:12:09;;;;;;;8.03;3.55;;;27.60;99.90;;;;;;1916448;75;21155;-76
2023/08/24 04:15:01;;;;;;;5.75;3.00;;;27.40;99.90;;;;;;1916124;75;21096;-76
2023/08/24 04:17:52;;;;;;;8.90;3.50;;;27.50;99.90;;;;;;1916373;75;21061;-75
2023/08/24 04:20:45;;;;;;;7.62;3.33;;;27.50;99.90;;;;;;1916182;75;21105;-75
2023/08/24 04:23:36;;;;;;;4.20;3.10;;;27.50;99.90;;;;;;1916160;75;21101;-76
2023/08/24 04:26:28;;;;;;;7.10;3.33;;;27.50;99.90;;;;;;1916404;75;21100;-76
2023/08/24 04:29:19;;;;;;;7.05;3.45;;;27.50;99.90;;;;;;1916811;75;21174;-76
2023/08/24 04:32:11;;;;;;;8.18;3.52;;;27.50;99.90;;;;;;1903966;74;21128;-76
2023/08/24 04:35:02;;;;;;;8.23;3.65;;;27.60;99.90;;;;;;1904343;75;21050;-76
2023/08/24 04:37:55;;;;;;;5.95;3.30;;;27.60;99.90;;;;;;1916475;75;21137;-75
2023/08/24 04:40:55;;;;;;;8.45;3.45;;;27.60;99.90;;;;;;1916588;75;21160;-76
2023/08/24 04:43:46;;;;;;;10.48;3.33;;;27.40;99.90;;;;;;1916511;75;21105;-75
2023/08/24 04:46:37;;;;;;;6.03;3.58;;;27.30;99.90;;;;;;1916469;75;21105;-76
2023/08/24 04:49:30;;;;;;;6.12;3.60;;;27.30;99.90;;;;;;1916453;75;21108;-75
2023/08/24 04:52:22;;;;;;;11.68;4.05;;;27.20;99.90;;;;;;1916392;75;21057;-76
2023/08/24 04:55:14;;;;;;;9.93;3.50;;;27.20;99.90;;;;;;1904055;75;21129;-75
2023/08/24 04:58:06;;;;;;;8.23;3.77;;;27.20;99.90;;;;;;1904197;75;21544;-75
2023/08/24 05:00:57;;;;;;;8.43;3.65;;;27.10;99.90;;;;;;1904187;75;21066;-76
2023/08/24 05:03:48;;;;;;;9.03;3.67;;;27.10;99.90;;;;;;1904267;75;21121;-76
2023/08/24 05:06:41;;;;;;;7.62;3.83;;;27.10;99.90;;;;;;1916483;75;21145;-76
2023/08/24 05:09:32;;;;;;;8.40;3.83;;;27.10;99.90;;;;;;1916433;75;21517;-75
2023/08/24 05:12:24;;;;;;;8.98;4.10;;;27.00;99.90;;;;;;1916257;75;21721;-76
2023/08/24 05:15:15;;;;;;;12.95;3.90;;;26.90;99.90;;;;;;1916503;75;21528;-75
2023/08/24 05:18:07;;;;;;;9.78;3.87;;;27.00;99.90;;;;;;1916311;75;21151;-75
2023/08/24 05:20:59;;;;;;;10.35;4.15;;;27.00;99.90;;;;;;1916487;75;21089;-75
2023/08/24 05:23:50;;;;;;;8.38;3.98;;;27.00;99.90;;;;;;1916354;75;21093;-75
2023/08/24 05:26:42;;;;;;;11.43;4.00;;;27.20;99.90;;;;;;1904058;75;21232;-75
2023/08/24 05:29:33;;;;;;;7.40;4.05;;;27.30;99.90;;;;;;1904070;75;21184;-76
2023/08/24 05:32:25;;;;;;;5.62;3.62;;;27.30;99.90;;;;;;1908844;74;21128;-76
2023/08/24 05:35:16;;;;;;;8.03;3.75;;;27.20;99.90;;;;;;1926101;74;21179;-76
2023/08/24 05:38:08;;;;;;;6.67;3.25;;;27.20;99.90;;;;;;1926172;74;21135;-75
2023/08/24 05:41:00;;;;;;;12.60;3.87;;;27.30;99.90;;;;;;1926090;74;21190;-76
2023/08/24 05:43:52;;;;;;;6.83;3.55;;;27.30;99.90;;;;;;1925988;74;21121;-76
2023/08/24 05:46:44;;;;;;;11.15;3.85;;;27.30;99.90;;;;;;1926122;74;21133;-76
2023/08/24 05:49:36;;;;;;;7.95;3.60;;;27.40;99.90;;;;;;1926050;74;21112;-76
2023/08/24 05:52:27;;;;;;;6.35;3.60;;;27.50;99.90;;;;;;1925785;74;21088;-75
2023/08/24 05:55:19;;;;;;;6.22;3.70;;;27.50;99.90;;;;;;1926039;74;21136;-75
2023/08/24 05:58:10;;;;;;;9.25;3.45;;;27.50;99.90;;;;;;1926190;74;21085;-75
2023/08/24 06:01:02;;;;;;;9.98;3.60;;;27.60;99.90;;;;;;1925826;74;21053;-75
2023/08/24 06:03:53;;;;;;;9.13;3.90;;;27.60;99.90;;;;;;1925742;74;21222;-75
2023/08/24 06:06:45;;;;;;;8.80;4.10;;;27.70;99.90;;;;;;1925537;74;21195;-75
2023/08/24 06:09:37;;;;;;;7.20;3.80;;;27.80;99.90;;;;;;1925684;74;21061;-75
2023/08/24 06:12:29;;;;;;;7.17;4.10;;;27.80;99.90;;;;;;1925970;74;21108;-76
2023/08/24 06:15:24;;;;;;;9.85;4.33;;;27.90;99.90;;;;;;1926012;74;21133;-75
2023/08/24 06:18:14;;;;;;;9.25;4.00;;;27.90;99.90;;;;;;1926028;74;21117;-76
2023/08/24 06:21:05;;;;;;;8.73;3.80;;;27.90;99.90;;;;;;1925981;74;21098;-75
2023/08/24 06:23:57;;;;;;;12.23;3.83;;;27.90;99.90;;;;;;1925658;74;21134;-76
2023/08/24 06:26:48;;;;;;;7.22;3.83;;;28.00;99.90;;;;;;1925727;74;21455;-75
2023/08/24 06:29:41;;;;;;;7.75;3.95;;;28.00;99.90;;;;;;1925876;74;21556;-76
2023/08/24 06:32:32;;;;;;;8.23;3.90;;;28.00;99.90;;;;;;1926016;74;21049;-75
2023/08/24 06:35:24;;;;;;;7.50;4.17;;;28.10;99.90;;;;;;1925868;74;21249;-76
2023/08/24 06:38:17;;;;;;;13.03;4.50;;;28.10;99.90;;;;;;1925652;74;21092;-76
2023/08/24 06:41:11;;;;;;;11.33;4.47;;;28.20;99.90;;;;;;1925899;74;21104;-75
2023/08/24 06:44:02;;;;;;;9.83;4.08;;;28.20;99.90;;;;;;1925792;74;21054;-75
2023/08/24 06:46:54;;;;;;;11.57;4.15;;;28.30;99.90;;;;;;1925884;74;21162;-76
2023/08/24 06:49:45;;;;;;;12.18;4.08;;;28.30;99.90;;;;;;1925643;74;21159;-75
2023/08/24 06:52:36;;;;;;;10.55;4.45;;;28.30;99.90;;;;;;1925142;74;21185;-76
2023/08/24 06:55:28;;;;;;;11.83;5.03;;;28.30;99.90;;;;;;1925430;74;21066;-76
2023/08/24 06:58:20;;;;;;;10.78;4.62;;;28.40;99.90;;;;;;1925747;74;21229;-75
2023/08/24 07:01:11;;;;;;;7.05;3.75;;;28.30;99.90;;;;;;1925841;74;21183;-75
2023/08/24 07:04:04;;;;;;;8.35;4.12;;;28.40;99.90;;;;;;1925616;74;21211;-75
2023/08/24 07:06:56;;;;;;;9.35;3.90;;;28.30;99.90;;;;;;1925711;74;21104;-76
2023/08/24 07:09:47;;;;;;;7.70;3.70;;;28.30;99.90;;;;;;1925660;74;21123;-76
2023/08/24 07:12:40;;;;;;;7.45;4.58;;;28.30;99.90;;;;;;1925391;74;21180;-75
2023/08/24 07:15:33;;;;;;;10.28;3.98;;;28.40;99.90;;;;;;1925229;74;21119;-75
2023/08/24 07:18:24;;;;;;;11.53;4.70;;;28.40;99.90;;;;;;1925043;74;21099;-76
2023/08/24 07:21:17;;;;;;;7.80;3.75;;;28.50;99.90;;;;;;1925352;74;21100;-76
2023/08/24 07:24:08;;;;;;;11.57;3.95;;;28.60;99.90;;;;;;1925657;74;21119;-75
2023/08/24 07:26:59;;;;;;;9.90;4.25;;;28.50;99.90;;;;;;1925929;74;21178;-76
2023/08/24 07:29:50;;;;;;;7.97;4.25;;;28.40;99.90;;;;;;1925858;74;21326;-76
2023/08/24 07:32:42;;;;;;;11.40;4.28;;;28.50;99.90;;;;;;1925979;74;21306;-76
2023/08/24 07:35:33;;;;;;;8.58;4.12;;;28.50;99.90;;;;;;1925899;74;21175;-77
2023/08/24 07:38:27;;;;;;;10.10;4.22;;;28.60;99.90;;;;;;1925386;74;21191;-76
2023/08/24 07:41:19;;;;;;;8.20;3.98;;;28.50;99.90;;;;;;1925777;74;21178;-76
2023/08/24 07:44:10;;;;;;;8.15;4.15;;;28.60;99.90;;;;;;1925301;74;21137;-76
2023/08/24 07:47:01;;;;;;;12.47;4.03;;;28.70;99.90;;;;;;1925139;74;21057;-77
2023/08/24 07:49:53;;;;;;;12.68;4.20;;;28.90;99.90;;;;;;1925478;74;21050;-77
2023/08/24 07:52:44;;;;;;;10.08;4.37;;;28.90;99.90;;;;;;1925566;74;22218;-77
2023/08/24 07:55:36;;;;;;;7.12;3.70;;;29.10;99.90;;;;;;1925704;74;21549;-77
2023/08/24 07:58:28;;;;;;;6.83;4.42;;;29.10;99.90;;;;;;1925722;74;21081;-77
2023/08/24 08:01:19;;;;;;;10.10;4.95;;;29.20;99.90;;;;;;1925648;74;21108;-76
2023/08/24 08:04:10;;;;;;;11.97;5.10;;;29.30;99.90;;;;;;1925865;74;21150;-76
2023/08/24 08:07:02;;;;;;;13.40;4.75;;;29.40;99.90;;;;;;1925775;74;21107;-76
2023/08/24 08:09:53;;;;;;;10.68;4.92;;;29.50;99.90;;;;;;1926161;74;21053;-76
2023/08/24 08:12:45;;;;;;;8.83;4.30;;;29.60;99.90;;;;;;1925764;74;21080;-76
2023/08/24 08:15:38;;;;;;;8.73;4.00;;;29.70;99.90;;;;;;1925944;74;21092;-75
2023/08/24 08:18:29;;;;;;;8.45;3.87;;;29.80;99.90;;;;;;1926035;74;21190;-76
2023/08/24 08:21:22;;;;;;;9.03;3.90;;;29.80;99.90;;;;;;1925962;74;21150;-76
2023/08/24 08:24:14;;;;;;;13.30;4.83;;;29.90;99.90;;;;;;1926990;73;21174;-76
2023/08/24 08:27:08;;;;;;;11.78;4.53;;;30.00;99.90;;;;;;1960432;73;21127;-76
2023/08/24 08:30:00;;;;;;;10.75;4.47;;;30.00;99.90;;;;;;1960211;73;21609;-76
2023/08/24 08:32:52;;;;;;;12.35;4.00;;;30.10;99.90;;;;;;1960049;73;21596;-76
2023/08/24 08:35:44;;;;;;;10.30;4.20;;;30.10;99.90;;;;;;1950441;73;21219;-76
2023/08/24 08:38:35;;;;;;;10.53;4.08;;;30.20;99.90;;;;;;1949744;73;21119;-76
2023/08/24 08:41:30;;;;;;;7.72;3.58;;;30.30;99.90;;;;;;1950024;73;21063;-76
2023/08/24 08:44:23;;;;;;;6.45;4.15;;;30.40;99.90;;;;;;1949859;73;21094;-76
2023/08/24 08:47:16;;;;;;;10.30;4.70;;;30.50;99.90;;;;;;1937220;74;21132;-76
2023/08/24 08:50:09;;;;;;;8.90;4.25;;;30.60;99.90;;;;;;1937006;74;21055;-76
2023/08/24 08:53:01;;;;;;;10.50;4.30;;;30.70;99.90;;;;;;1937109;74;21094;-76
2023/08/24 08:55:57;;;;;;;12.47;5.03;;;30.70;99.90;;;;;;1937154;74;21137;-76
2023/08/24 08:58:49;;;;;;;11.55;3.80;;;30.90;99.90;;;;;;1937503;74;21120;-76
2023/08/24 09:01:41;;;;;;;11.60;4.37;;;31.00;99.90;;;;;;1950068;73;21097;-76
2023/08/24 09:04:34;;;;;;;9.40;4.40;;;31.10;99.90;;;;;;1950096;73;21055;-76
2023/08/24 09:07:26;;;;;;;16.57;4.58;;;31.20;99.90;;;;;;1936988;74;21169;-76
2023/08/24 09:10:17;;;;;;;10.78;3.87;;;31.20;99.90;;;;;;1937033;74;21120;-75
2023/08/24 09:13:09;;;;;;;11.18;4.25;;;31.30;99.90;;;;;;1949940;73;21267;-75
2023/08/24 09:16:06;;;;;;;6.92;4.25;;;31.40;99.90;;;;;;1949949;73;21106;-75
2023/08/24 09:18:58;;;;;;;8.90;4.55;;;31.50;99.80;;;;;;1949925;73;21114;-75
2023/08/24 09:21:49;;;;;;;10.58;5.08;;;31.50;99.90;;;;;;1949792;73;21160;-75
2023/08/24 09:24:41;;;;;;;13.43;4.40;;;31.60;99.90;;;;;;1949806;73;21762;-75
2023/08/24 09:27:35;;;;;;;13.53;4.55;;;31.70;99.90;;;;;;1949692;73;21055;-76
2023/08/24 09:30:32;;;;;;;10.63;4.92;;;31.80;99.90;;;;;;1949946;73;21185;-76
2023/08/24 09:33:25;;;;;;;10.10;3.77;;;31.90;99.90;;;;;;1937168;74;21092;-75
2023/08/24 09:36:19;;;;;;;10.98;4.55;;;32.00;99.20;;;;;;1937129;73;21091;-75
2023/08/24 09:39:11;;;;;;;10.18;4.60;;;32.10;99.00;;;;;;1936969;74;21165;-75
2023/08/24 09:42:03;;;;;;;8.20;4.15;;;32.20;98.70;;;;;;1949800;73;21562;-75
2023/08/24 09:44:54;;;;;;;11.80;5.00;;;32.20;98.40;;;;;;1949681;73;21261;-75
2023/08/24 09:47:52;;;;;;;12.30;3.98;;;32.30;98.30;;;;;;1949549;73;22110;-75
2023/08/24 09:50:45;;;;;;;8.33;4.10;;;32.40;97.60;;;;;;1949617;73;21125;-75
2023/08/24 09:53:38;;;;;;;10.35;4.20;;;32.60;96.50;;;;;;1949517;73;21574;-76
2023/08/24 09:56:33;;;;;;;12.37;4.03;;;32.70;95.70;;;;;;1949544;73;21550;-75
2023/08/24 09:59:27;;;;;;;7.22;3.85;;;32.70;95.10;;;;;;1949874;73;21168;-75
2023/08/24 10:02:22;;;;;;;10.95;4.37;;;32.80;94.00;;;;;;1949665;73;21051;-75
2023/08/24 10:05:20;;;;;;;8.83;4.55;;;33.00;94.10;;;;;;1937029;74;21082;-75
2023/08/24 10:08:10;;;;;;;9.48;4.17;;;33.00;93.50;;;;;;1937347;74;21131;-75
2023/08/24 10:11:02;;;;;;;10.18;4.55;;;33.10;92.70;;;;;;1936870;74;21150;-75
2023/08/24 10:13:59;;;;;;;10.20;4.30;;;33.10;92.30;;;;;;1937366;74;21115;-75
2023/08/24 10:16:52;;;;;;;7.43;3.63;;;33.20;91.80;;;;;;1937107;74;21148;-75
2023/08/24 10:19:45;;;;;;;8.05;4.08;;;33.20;91.80;;;;;;1936927;74;21055;-76
2023/08/24 10:22:39;;;;;;;10.08;4.17;;;33.20;91.60;;;;;;1916066;75;21121;-79
2023/08/24 10:25:31;;;;;;;7.97;4.20;;;33.40;91.40;;;;;;1932245;74;21110;-77
2023/08/24 10:28:25;;;;;;;7.92;4.65;;;33.50;91.00;;;;;;1921046;74;21055;-79
2023/08/24 10:31:17;;;;;;;6.03;4.28;;;33.50;91.10;;;;;;1937105;74;21095;-77
2023/08/24 10:34:10;;;;;;;9.85;4.78;;;33.60;90.70;;;;;;1949702;73;21046;-78
2023/08/24 10:37:10;;;;;;;12.55;4.50;;;33.70;90.10;;;;;;1949720;73;21110;-77
2023/08/24 10:40:04;;;;;;;11.28;4.60;;;33.80;90.20;;;;;;1949952;73;21043;-78
2023/08/24 10:42:57;;;;;;;12.30;4.87;;;33.90;89.50;;;;;;1949898;73;21098;-77
2023/08/24 10:45:59;;;;;;;9.13;4.25;;;34.00;88.50;;;;;;1943110;73;21055;-77
2023/08/24 10:49:00;;;;;;;9.50;4.35;;;34.10;88.80;;;;;;1915722;75;21122;-78
2023/08/24 10:51:52;;;;;;;11.28;3.95;;;34.10;88.20;;;;;;1916000;75;21204;-82
2023/08/24 10:54:48;;;;;;;7.95;3.98;;;34.20;88.40;;;;;;1916027;75;21126;-91
2023/08/24 10:57:41;;;;;;;9.93;4.20;;;34.40;87.40;;;;;;1916130;75;21644;-82
2023/08/24 11:00:34;;;;;;;8.23;3.95;;;34.40;87.00;;;;;;1916299;75;21156;-81
2023/08/24 11:03:34;;;;;;;7.37;4.00;;;34.50;86.00;;;;;;1916089;75;21202;-82
2023/08/24 11:06:28;;;;;;;7.08;3.98;;;34.70;86.10;;;;;;1928513;73;21094;-82
2023/08/24 11:09:20;;;;;;;7.35;3.90;;;34.80;85.00;;;;;;1915998;75;21105;-82
2023/08/24 11:12:12;;;;;;;8.93;3.85;;;34.80;84.60;;;;;;1916112;75;21409;-82
2023/08/24 11:15:04;;;;;;;6.62;3.95;;;35.10;82.70;;;;;;1916154;75;21578;-82
2023/08/24 11:18:15;;;;;;;6.87;3.77;;;35.20;82.30;;;;;;1916118;75;21109;-82
2023/08/24 11:21:07;;;;;;;9.53;3.90;;;35.30;81.60;;;;;;1916022;75;21105;-82
2023/08/24 11:24:00;;;;;;;7.62;3.60;;;35.50;81.10;;;;;;1916070;75;21184;-83
2023/08/24 11:26:52;;;;;;;7.30;3.47;;;35.60;79.70;;;;;;1916185;75;21154;-83
2023/08/24 11:29:43;;;;;;;8.43;3.37;;;35.70;79.30;;;;;;1915973;75;21146;-83
2023/08/24 11:32:35;;;;;;;7.87;3.62;;;35.80;80.10;;;;;;1915328;75;21240;-83
2023/08/24 11:35:26;;;;;;;10.95;3.52;;;35.80;79.10;;;;;;1915662;75;21102;-82
2023/08/24 11:38:20;;;;;;;8.25;3.47;;;35.90;80.10;;;;;;1919243;74;21118;-83
2023/08/24 11:41:17;;;;;;;6.83;3.60;;;36.10;78.90;;;;;;1926018;74;21059;-83
2023/08/24 11:44:09;;;;;;;9.83;3.45;;;36.30;77.50;;;;;;1925859;74;21145;-83
2023/08/24 11:47:06;;;;;;;11.12;3.55;;;36.40;76.20;;;;;;1925930;74;21114;-84
2023/08/24 11:49:57;;;;;;;8.20;3.58;;;36.60;73.60;;;;;;1925976;74;21091;-82
2023/08/24 11:52:50;;;;;;;11.40;3.47;;;36.70;71.40;;;;;;1925743;74;21659;-82
2023/08/24 11:55:43;;;;;;;8.73;3.40;;;36.80;73.50;;;;;;1925908;74;21090;-83
2023/08/24 12:02:42;;;;;;;8.47;2.93;;;37.00;72.70;;;;;;1878682;76;21097;-85
2023/08/24 12:05:37;;;;;;;7.95;3.30;;;37.10;70.70;;;;;;1892665;74;21090;-84
2023/08/24 12:08:40;;;;;;;7.92;3.58;;;37.20;69.30;;;;;;1927145;74;21098;-83
2023/08/24 12:11:39;;;;;;;5.08;3.25;;;37.30;69.60;;;;;;1926102;73;21226;-84
2023/08/24 12:14:43;;;;;;;10.53;3.15;;;37.30;70.60;;;;;;1909304;75;21125;-85
2023/08/24 12:17:44;;;;;;;8.35;3.15;;;37.50;70.00;;;;;;1909039;75;21569;-84
2023/08/24 12:20:36;;;;;;;10.88;3.72;;;37.60;69.60;;;;;;1908875;75;21205;-83
2023/08/24 12:23:29;;;;;;;8.18;3.45;;;37.70;69.00;;;;;;1908930;75;21147;-83
2023/08/24 12:26:21;;;;;;;6.67;3.27;;;37.70;68.20;;;;;;1909298;75;21103;-83
2023/08/24 12:29:13;;;;;;;9.03;3.70;;;37.70;66.90;;;;;;1909316;75;21164;-83
2023/08/24 12:32:06;;;;;;;6.12;3.50;;;37.70;66.60;;;;;;1909783;73;21602;-83
2023/08/24 12:34:58;;;;;;;6.28;3.62;;;37.80;67.80;;;;;;1850683;77;21104;-83
2023/08/24 12:37:49;;;;;;;6.40;3.60;;;37.90;65.60;;;;;;1901689;75;21058;-82
2023/08/24 12:40:40;;;;;;;6.37;3.15;;;37.80;65.60;;;;;;1901515;75;21630;-84
2023/08/24 12:43:32;;;;;;;7.37;3.02;;;37.80;65.10;;;;;;1900799;75;21126;-83
2023/08/24 12:46:24;;;;;;;7.40;3.42;;;37.80;65.00;;;;;;1901569;75;21226;-82
2023/08/24 12:49:15;;;;;;;6.20;3.40;;;37.90;65.60;;;;;;1901379;75;21114;-84
2023/08/24 12:52:07;;;;;;;8.73;3.22;;;38.00;64.70;;;;;;1901212;75;21122;-82
2023/08/24 12:54:59;;;;;;;10.63;3.60;;;38.00;63.60;;;;;;1901267;75;21144;-83
2023/08/24 12:57:50;;;;;;;7.28;3.10;;;38.10;63.70;;;;;;1901502;75;21103;-83
2023/08/24 13:00:42;;;;;;;4.83;2.60;;;38.10;62.70;;;;;;1901635;75;21114;-84
2023/08/24 13:03:35;;;;;;;7.83;3.33;;;38.10;62.80;;;;;;1901718;75;21114;-83
2023/08/24 13:06:29;;;;;;;;;;;38.00;62.50;;;;;;1904581;75;21190;-83
2023/08/24 13:09:20;;;;;;;6.60;3.20;;;38.10;62.30;;;;;;1901805;75;20205;-83
2023/08/24 13:12:12;;;;;;;5.20;3.22;;;38.10;61.60;;;;;;1901562;75;21160;-83
2023/08/24 13:15:04;;;;;;;6.97;2.80;;;38.30;61.00;;;;;;1901295;75;21079;-82
2023/08/24 13:17:56;;;;;;;6.22;2.98;;;38.30;60.80;;;;;;1901133;75;21542;-83
2023/08/24 13:20:47;;;;;;;5.55;3.15;;;38.30;60.70;;;;;;1901153;75;21402;-83
2023/08/24 13:23:39;;;;;;;5.30;2.92;;;38.30;59.40;;;;;;1901531;75;21199;-83
2023/08/24 13:26:30;;;;;;;4.70;3.02;;;38.40;59.30;;;;;;1901688;75;21098;-83
2023/08/24 13:29:22;;;;;;;5.92;2.72;;;38.50;58.90;;;;;;1901726;75;21161;-82
2023/08/24 13:32:16;;;;;;;6.00;3.10;;;38.50;58.70;;;;;;1901606;75;21637;-82
2023/08/24 13:35:11;;;;;;;8.13;3.20;;;38.60;58.00;;;;;;1901567;75;21183;-83
2023/08/24 13:38:03;;;;;;;5.87;3.00;;;38.60;57.90;;;;;;1901054;75;21187;-82
2023/08/24 13:40:54;;;;;;;7.25;3.22;;;38.60;57.00;;;;;;1910806;73;21171;-82
2023/08/24 13:43:46;;;;;;;7.08;2.80;;;38.70;56.80;;;;;;1915070;75;21240;-85
2023/08/24 13:46:37;;;;;;;9.40;3.50;;;38.70;56.70;;;;;;1916104;75;21113;-82
2023/08/24 13:49:29;;;;;;;5.20;3.33;;;38.70;56.70;;;;;;1916500;75;21067;-82
2023/08/24 13:52:22;;;;;;;6.12;2.92;;;38.90;56.80;;;;;;1916447;75;21183;-84
2023/08/24 13:55:14;;;;;;;7.80;3.08;;;38.90;56.90;;;;;;1916195;75;21133;-83
2023/08/24 13:58:06;;;;;;;6.30;3.50;;;39.10;56.40;;;;;;1916392;75;21369;-84
2023/08/24 14:00:58;;;;;;;7.58;3.40;;;39.30;56.50;;;;;;1916555;75;21097;-84
2023/08/24 14:03:50;;;;;;;6.70;3.00;;;39.40;56.30;;;;;;1916530;75;21093;-82
2023/08/24 14:06:42;;;;;;;5.75;2.83;;;39.40;56.00;;;;;;1935457;73;21086;-83
2023/08/24 14:09:33;;;;;;;4.75;3.30;;;39.90;55.40;;;;;;1950474;73;21519;-83
2023/08/24 14:12:25;;;;;;;4.22;2.95;;;40.60;54.70;;;;;;1950528;73;21131;-83
2023/08/24 14:15:17;;;;;;;6.35;3.05;;;40.90;53.20;;;;;;1950430;73;21204;-84
2023/08/24 14:18:09;;;;;;;6.25;2.87;;;41.20;53.30;;;;;;1950425;73;21047;-84
2023/08/24 14:21:00;;;;;;;5.87;3.10;;;41.50;52.40;;;;;;1950336;73;21082;-84
2023/08/24 14:23:52;;;;;;;6.60;3.50;;;41.80;52.10;;;;;;1950044;73;21095;-83
2023/08/24 14:26:45;;;;;;;6.45;2.87;;;41.80;51.60;;;;;;1950560;73;21055;-83
2023/08/24 14:29:37;;;;;;;8.93;3.30;;;41.80;50.60;;;;;;1950037;73;21644;-83
2023/08/24 14:32:29;;;;;;;3.85;3.00;;;41.80;51.00;;;;;;1950228;73;21120;-82
2023/08/24 14:35:21;;;;;;;5.20;3.12;;;42.10;49.90;;;;;;1931839;73;21174;-83
2023/08/24 14:38:13;;;;;;;3.30;2.55;;;42.20;49.60;;;;;;1916019;75;21107;-84
2023/08/24 14:41:04;;;;;;;6.08;3.30;;;42.20;49.30;;;;;;1912345;75;21160;-83
2023/08/24 14:43:56;;;;;;;4.15;2.92;;;42.10;49.10;;;;;;1916165;75;21215;-83
2023/08/24 14:46:48;;;;;;;12.55;3.00;;;42.50;48.60;;;;;;1916302;75;21100;-82
2023/08/24 14:49:41;;;;;;;5.53;3.30;;;42.90;47.20;;;;;;1903912;75;21087;-83
2023/08/24 14:52:32;;;;;;;6.67;3.33;;;43.10;46.90;;;;;;1916099;75;21140;-83
2023/08/24 14:55:24;;;;;;;5.80;2.92;;;43.80;46.50;;;;;;1916169;75;21060;-84
2023/08/24 14:58:15;;;;;;;7.75;3.05;;;44.20;46.10;;;;;;1916168;75;21111;-84
2023/08/24 15:01:07;;;;;;;5.70;2.87;;;43.90;45.40;;;;;;1916146;75;21124;-84